createdAt,value
2015-10-11T00:00:13.464Z,95227
2015-10-11T00:00:31.918Z,95233
2015-10-11T00:00:50.278Z,95221
2015-10-11T00:01:08.825Z,95227
2015-10-11T00:01:27.263Z,95227
2015-10-11T00:01:45.701Z,95233
2015-10-11T00:02:04.091Z,95230
2015-10-11T00:02:22.453Z,95227
2015-10-11T00:02:40.828Z,95227
2015-10-11T00:03:02.203Z,95233
2015-10-11T00:03:20.578Z,95224
2015-10-11T00:03:39.000Z,95224
2015-10-11T00:03:57.438Z,95231
2015-10-11T00:04:15.813Z,95228
2015-10-11T00:04:34.159Z,95241
2015-10-11T00:04:52.643Z,95220
2015-10-11T00:05:11.049Z,95231
2015-10-11T00:05:29.489Z,95223
2015-10-11T00:05:47.973Z,95231
2015-10-11T00:06:06.395Z,95233
2015-10-11T00:06:25.023Z,95231
2015-10-11T00:06:43.492Z,95239
2015-10-11T00:07:01.945Z,95224
2015-10-11T00:07:20.304Z,95234
2015-10-11T00:07:38.869Z,95225
2015-10-11T00:07:57.369Z,95231
2015-10-11T00:08:15.713Z,95228
2015-10-11T00:08:34.309Z,95233
2015-10-11T00:08:52.872Z,95233
2015-10-11T00:09:11.294Z,95233
2015-10-11T00:09:29.967Z,95235
2015-10-11T00:09:48.545Z,95238
2015-10-11T00:10:06.920Z,95227
2015-10-11T00:10:25.375Z,95232
2015-10-11T00:10:43.859Z,95238
2015-10-11T00:11:02.265Z,95227
2015-10-11T00:11:20.656Z,95229
2015-10-11T00:11:39.159Z,95229
2015-10-11T00:11:57.628Z,95240
2015-10-11T00:12:16.034Z,95237
2015-10-11T00:12:34.630Z,95229
2015-10-11T00:12:52.974Z,95237
2015-10-11T00:13:11.489Z,95219
2015-10-11T00:13:29.961Z,95233
2015-10-11T00:13:48.461Z,95230
2015-10-11T00:14:06.867Z,95233
2015-10-11T00:14:25.211Z,95227
2015-10-11T00:14:43.854Z,95227
2015-10-11T00:15:02.307Z,95221
2015-10-11T00:15:20.604Z,95221
2015-10-11T00:15:39.106Z,95235
2015-10-11T00:15:57.512Z,95221
2015-10-11T00:16:15.996Z,95227
2015-10-11T00:16:34.375Z,95233
2015-10-11T00:16:52.813Z,95230
2015-10-11T00:17:11.031Z,95227
2015-10-11T00:17:29.393Z,95221
2015-10-11T00:17:47.799Z,95233
2015-10-11T00:18:06.080Z,95230
2015-10-11T00:18:24.205Z,95238
2015-10-11T00:18:42.629Z,95227
2015-10-11T00:19:00.989Z,95233
2015-10-11T00:19:19.114Z,95228
2015-10-11T00:19:37.336Z,95231
2015-10-11T00:19:55.883Z,95233
2015-10-11T00:20:14.196Z,95224
2015-10-11T00:20:32.635Z,95238
2015-10-11T00:20:51.041Z,95230
2015-10-11T00:21:09.401Z,95236
2015-10-11T00:21:27.854Z,95228
2015-10-11T00:21:46.248Z,95222
2015-10-11T00:22:04.591Z,95222
2015-10-11T00:22:23.107Z,95238
2015-10-11T00:22:41.563Z,95216
2015-10-11T00:22:59.907Z,95233
2015-10-11T00:23:18.266Z,95236
2015-10-11T00:23:36.660Z,95233
2015-10-11T00:23:55.222Z,95233
2015-10-11T00:24:13.582Z,95221
2015-10-11T00:24:31.943Z,95230
2015-10-11T00:24:50.365Z,95230
2015-10-11T00:25:08.724Z,95233
2015-10-11T00:25:27.084Z,95222
2015-10-11T00:25:45.430Z,95239
2015-10-11T00:26:03.805Z,95222
2015-10-11T00:26:22.337Z,95228
2015-10-11T00:26:40.746Z,95230
2015-10-11T00:26:59.105Z,95230
2015-10-11T00:27:17.590Z,95227
2015-10-11T00:27:36.014Z,95233
2015-10-11T00:27:54.389Z,95229
2015-10-11T00:28:13.107Z,95218
2015-10-11T00:28:31.482Z,95237
2015-10-11T00:28:50.079Z,95237
2015-10-11T00:29:08.470Z,95226
2015-10-11T00:29:26.938Z,95237
2015-10-11T00:29:45.409Z,95227
2015-10-11T00:30:03.862Z,95233
2015-10-11T00:30:22.409Z,95230
2015-10-11T00:30:40.928Z,95235
2015-10-11T00:30:59.334Z,95238
2015-10-11T00:31:17.662Z,95233
2015-10-11T00:31:36.165Z,95233
2015-10-11T00:31:55.087Z,95233
2015-10-11T00:32:13.509Z,95238
2015-10-11T00:32:31.900Z,95227
2015-10-11T00:32:50.637Z,95236
2015-10-11T00:33:09.106Z,95222
2015-10-11T00:33:27.606Z,95228
2015-10-11T00:33:45.968Z,95236
2015-10-11T00:34:04.562Z,95242
2015-10-11T00:34:23.031Z,95231
2015-10-11T00:34:41.470Z,95225
2015-10-11T00:34:59.986Z,95226
2015-10-11T00:35:18.392Z,95226
2015-10-11T00:35:36.892Z,95240
2015-10-11T00:35:55.301Z,95235
2015-10-11T00:36:13.739Z,95232
2015-10-11T00:36:32.098Z,95241
2015-10-11T00:36:50.475Z,95230
2015-10-11T00:37:08.881Z,95222
2015-10-11T00:37:27.147Z,95228
2015-10-11T00:37:45.572Z,95233
2015-10-11T00:38:03.931Z,95239
2015-10-11T00:38:22.337Z,95236
2015-10-11T00:38:40.701Z,95238
2015-10-11T00:38:59.232Z,95230
2015-10-11T00:39:17.795Z,95239
2015-10-11T00:39:36.498Z,95242
2015-10-11T00:39:54.890Z,95239
2015-10-11T00:40:13.234Z,95236
2015-10-11T00:40:31.718Z,95227
2015-10-11T00:40:50.159Z,95239
2015-10-11T00:41:08.550Z,95244
2015-10-11T00:41:26.971Z,95230
2015-10-11T00:41:45.411Z,95238
2015-10-11T00:42:03.864Z,95232
2015-10-11T00:42:22.692Z,95229
2015-10-11T00:42:41.039Z,95229
2015-10-11T00:42:59.555Z,95234
2015-10-11T00:43:18.117Z,95247
2015-10-11T00:43:36.695Z,95237
2015-10-11T00:43:55.167Z,95229
2015-10-11T00:44:13.620Z,95232
2015-10-11T00:44:32.073Z,95240
2015-10-11T00:44:50.653Z,95238
2015-10-11T00:45:09.044Z,95229
2015-10-11T00:45:27.435Z,95232
2015-10-11T00:45:46.094Z,95240
2015-10-11T00:46:04.516Z,95241
2015-10-11T00:46:22.969Z,95238
2015-10-11T00:46:41.422Z,95235
2015-10-11T00:46:59.878Z,95239
2015-10-11T00:47:18.269Z,95233
2015-10-11T00:47:36.644Z,95233
2015-10-11T00:47:55.365Z,95241
2015-10-11T00:48:13.756Z,95238
2015-10-11T00:48:32.162Z,95238
2015-10-11T00:48:50.539Z,95232
2015-10-11T00:49:08.774Z,95235
2015-10-11T00:49:27.305Z,95235
2015-10-11T00:49:45.680Z,95227
2015-10-11T00:50:04.042Z,95222
2015-10-11T00:50:22.433Z,95233
2015-10-11T00:50:40.792Z,95241
2015-10-11T00:50:59.372Z,95225
2015-10-11T00:51:17.779Z,95236
2015-10-11T00:51:36.247Z,95239
2015-10-11T00:51:54.688Z,95229
2015-10-11T00:52:13.532Z,95229
2015-10-11T00:52:32.000Z,95235
2015-10-11T00:52:50.360Z,95235
2015-10-11T00:53:08.925Z,95229
2015-10-11T00:53:27.394Z,95223
2015-10-11T00:53:46.019Z,95234
2015-10-11T00:54:04.413Z,95225
2015-10-11T00:54:22.788Z,95236
2015-10-11T00:54:41.131Z,95219
2015-10-11T00:54:59.587Z,95222
2015-10-11T00:55:18.149Z,95217
2015-10-11T00:55:36.524Z,95233
2015-10-11T00:55:54.915Z,95222
2015-10-11T00:56:13.511Z,95219
2015-10-11T00:56:32.121Z,95223
2015-10-11T00:56:50.340Z,95223
2015-10-11T00:57:08.702Z,95234
2015-10-11T00:57:27.186Z,95223
2015-10-11T00:57:45.843Z,95229
2015-10-11T00:58:04.283Z,95223
2015-10-11T00:58:22.674Z,95225
2015-10-11T00:58:41.111Z,95223
2015-10-11T00:58:59.801Z,95237
2015-10-11T00:59:18.426Z,95223
2015-10-11T00:59:36.941Z,95229
2015-10-11T00:59:55.535Z,95234
2015-10-11T01:00:13.929Z,95223
2015-10-11T01:00:32.288Z,95232
2015-10-11T01:00:50.694Z,95228
2015-10-11T01:01:09.198Z,95236
2015-10-11T01:01:27.792Z,95227
2015-10-11T01:01:46.245Z,95226
2015-10-11T01:02:04.857Z,95221
2015-10-11T01:02:23.310Z,95229
2015-10-11T01:02:41.685Z,95232
2015-10-11T01:03:00.091Z,95221
2015-10-11T01:03:18.563Z,95232
2015-10-11T01:03:36.969Z,95237
2015-10-11T01:03:55.391Z,95226
2015-10-11T01:04:13.769Z,95229
2015-10-11T01:04:32.206Z,95225
2015-10-11T01:04:50.722Z,95228
2015-10-11T01:05:09.255Z,95228
2015-10-11T01:05:27.615Z,95228
2015-10-11T01:05:46.052Z,95242
2015-10-11T01:06:04.539Z,95228
2015-10-11T01:06:22.883Z,95223
2015-10-11T01:06:41.321Z,95228
2015-10-11T01:06:59.711Z,95228
2015-10-11T01:07:18.089Z,95225
2015-10-11T01:07:36.464Z,95230
2015-10-11T01:07:55.042Z,95230
2015-10-11T01:08:13.561Z,95222
2015-10-11T01:08:31.952Z,95225
2015-10-11T01:08:50.358Z,95225
2015-10-11T01:09:08.735Z,95225
2015-10-11T01:09:27.157Z,95217
2015-10-11T01:09:45.516Z,95228
2015-10-11T01:10:03.969Z,95228
2015-10-11T01:10:22.519Z,95225
2015-10-11T01:10:40.957Z,95220
2015-10-11T01:10:59.425Z,95220
2015-10-11T01:11:17.975Z,95228
2015-10-11T01:11:36.413Z,95214
2015-10-11T01:11:55.022Z,95220
2015-10-11T01:12:13.602Z,95217
2015-10-11T01:12:31.977Z,95217
2015-10-11T01:12:50.430Z,95215
2015-10-11T01:13:08.837Z,95228
2015-10-11T01:13:27.230Z,95218
2015-10-11T01:13:45.605Z,95229
2015-10-11T01:14:04.074Z,95220
2015-10-11T01:14:22.530Z,95217
2015-10-11T01:14:40.936Z,95223
2015-10-11T01:14:59.655Z,95217
2015-10-11T01:15:18.018Z,95225
2015-10-11T01:15:36.502Z,95220
2015-10-11T01:15:55.330Z,95220
2015-10-11T01:16:13.738Z,95230
2015-10-11T01:16:32.098Z,95225
2015-10-11T01:16:50.457Z,95209
2015-10-11T01:17:08.848Z,95223
2015-10-11T01:17:27.319Z,95223
2015-10-11T01:17:45.726Z,95226
2015-10-11T01:18:04.241Z,95217
2015-10-11T01:18:22.665Z,95215
2015-10-11T01:18:41.212Z,95224
2015-10-11T01:18:59.571Z,95226
2015-10-11T01:19:17.981Z,95229
2015-10-11T01:19:36.559Z,95223
2015-10-11T01:19:54.949Z,95220
2015-10-11T01:20:13.481Z,95223
2015-10-11T01:20:32.077Z,95223
2015-10-11T01:20:50.484Z,95221
2015-10-11T01:21:09.046Z,95221
2015-10-11T01:21:27.517Z,95221
2015-10-11T01:21:46.158Z,95221
2015-10-11T01:22:04.501Z,95230
2015-10-11T01:22:23.286Z,95216
2015-10-11T01:22:41.692Z,95225
2015-10-11T01:23:00.114Z,95219
2015-10-11T01:23:18.648Z,95222
2015-10-11T01:23:37.273Z,95230
2015-10-11T01:23:55.804Z,95227
2015-10-11T01:24:14.257Z,95226
2015-10-11T01:24:32.792Z,95218
2015-10-11T01:24:51.229Z,95218
2015-10-11T01:25:09.729Z,95212
2015-10-11T01:25:28.075Z,95229
2015-10-11T01:25:46.465Z,95209
2015-10-11T01:26:04.840Z,95220
2015-10-11T01:26:23.266Z,95217
2015-10-11T01:26:41.735Z,95220
2015-10-11T01:27:00.188Z,95218
2015-10-11T01:27:18.579Z,95226
2015-10-11T01:27:37.206Z,95221
2015-10-11T01:27:55.768Z,95213
2015-10-11T01:28:14.128Z,95215
2015-10-11T01:28:32.537Z,95218
2015-10-11T01:28:50.990Z,95215
2015-10-11T01:29:09.553Z,95210
2015-10-11T01:29:28.117Z,95216
2015-10-11T01:29:46.445Z,95213
2015-10-11T01:30:04.867Z,95216
2015-10-11T01:30:23.323Z,95218
2015-10-11T01:30:41.745Z,95215
2015-10-11T01:31:00.167Z,95219
2015-10-11T01:31:18.636Z,95217
2015-10-11T01:31:37.061Z,95222
2015-10-11T01:31:55.420Z,95216
2015-10-11T01:32:13.607Z,95221
2015-10-11T01:32:32.109Z,95205
2015-10-11T01:32:50.797Z,95215
2015-10-11T01:33:09.344Z,95224
2015-10-11T01:33:27.801Z,95218
2015-10-11T01:33:46.238Z,95215
2015-10-11T01:34:04.676Z,95210
2015-10-11T01:34:23.051Z,95206
2015-10-11T01:34:41.507Z,95217
2015-10-11T01:35:00.132Z,95209
2015-10-11T01:35:18.648Z,95209
2015-10-11T01:35:37.118Z,95218
2015-10-11T01:35:55.462Z,95215
2015-10-11T01:36:13.915Z,95215
2015-10-11T01:36:32.590Z,95209
2015-10-11T01:36:50.981Z,95220
2015-10-11T01:37:09.371Z,95215
2015-10-11T01:37:27.981Z,95210
2015-10-11T01:37:46.342Z,95212
2015-10-11T01:38:04.811Z,95209
2015-10-11T01:38:23.280Z,95221
2015-10-11T01:38:41.767Z,95212
2015-10-11T01:39:00.205Z,95212
2015-10-11T01:39:18.783Z,95204
2015-10-11T01:39:37.208Z,95212
2015-10-11T01:39:55.567Z,95212
2015-10-11T01:40:14.114Z,95212
2015-10-11T01:40:32.739Z,95212
2015-10-11T01:40:51.351Z,95218
2015-10-11T01:41:09.695Z,95215
2015-10-11T01:41:28.211Z,95215
2015-10-11T01:41:46.572Z,95212
2015-10-11T01:42:04.963Z,95209
2015-10-11T01:42:23.525Z,95217
2015-10-11T01:42:42.075Z,95214
2015-10-11T01:43:00.512Z,95209
2015-10-11T01:43:18.950Z,95217
2015-10-11T01:43:37.356Z,95209
2015-10-11T01:43:55.889Z,95214
2015-10-11T01:44:14.343Z,95208
2015-10-11T01:44:32.702Z,95212
2015-10-11T01:44:51.267Z,95220
2015-10-11T01:45:09.736Z,95209
2015-10-11T01:45:28.096Z,95217
2015-10-11T01:45:46.474Z,95203
2015-10-11T01:46:04.864Z,95212
2015-10-11T01:46:23.364Z,95212
2015-10-11T01:46:41.833Z,95206
2015-10-11T01:47:00.211Z,95217
2015-10-11T01:47:18.602Z,95204
2015-10-11T01:47:36.961Z,95204
2015-10-11T01:47:55.338Z,95207
2015-10-11T01:48:13.885Z,95212
2015-10-11T01:48:32.307Z,95207
2015-10-11T01:48:50.716Z,95204
2015-10-11T01:49:09.075Z,95207
2015-10-11T01:49:27.466Z,95207
2015-10-11T01:49:45.841Z,95208
2015-10-11T01:50:04.297Z,95214
2015-10-11T01:50:22.828Z,95209
2015-10-11T01:50:41.297Z,95198
2015-10-11T01:50:59.691Z,95208
2015-10-11T01:51:18.034Z,95203
2015-10-11T01:51:36.425Z,95195
2015-10-11T01:51:54.834Z,95195
2015-10-11T01:52:13.241Z,95198
2015-10-11T01:52:31.616Z,95198
2015-10-11T01:52:50.118Z,95206
2015-10-11T01:53:08.477Z,95198
2015-10-11T01:53:26.711Z,95203
2015-10-11T01:53:45.055Z,95203
2015-10-11T01:54:03.434Z,95193
2015-10-11T01:54:21.840Z,95198
2015-10-11T01:54:40.215Z,95193
2015-10-11T01:54:58.592Z,95198
2015-10-11T01:55:16.952Z,95192
2015-10-11T01:55:35.342Z,95202
2015-10-11T01:55:53.733Z,95197
2015-10-11T01:56:12.095Z,95197
2015-10-11T01:56:30.486Z,95202
2015-10-11T01:56:49.017Z,95192
2015-10-11T01:57:07.395Z,95192
2015-10-11T01:57:25.755Z,95197
2015-10-11T01:57:44.114Z,95210
2015-10-11T01:58:02.538Z,95202
2015-10-11T01:58:21.007Z,95205
2015-10-11T01:58:39.444Z,95192
2015-10-11T01:58:57.788Z,95202
2015-10-11T01:59:16.166Z,95204
2015-10-11T01:59:34.525Z,95202
2015-10-11T01:59:53.010Z,95197
2015-10-11T02:00:11.355Z,95194
2015-10-11T02:00:29.980Z,95202
2015-10-11T02:00:48.480Z,95202
2015-10-11T02:01:06.874Z,95207
2015-10-11T02:01:25.296Z,95201
2015-10-11T02:01:43.827Z,95204
2015-10-11T02:02:02.233Z,95196
2015-10-11T02:02:20.564Z,95207
2015-10-11T02:02:38.955Z,95204
2015-10-11T02:02:57.377Z,95207
2015-10-11T02:03:15.989Z,95194
2015-10-11T02:03:34.552Z,95194
2015-10-11T02:03:52.911Z,95202
2015-10-11T02:04:11.274Z,95219
2015-10-11T02:04:29.727Z,95202
2015-10-11T02:04:48.164Z,95198
2015-10-11T02:05:06.838Z,95208
2015-10-11T02:05:25.322Z,95207
2015-10-11T02:05:43.807Z,95202
2015-10-11T02:06:02.276Z,95207
2015-10-11T02:06:20.716Z,95210
2015-10-11T02:06:39.200Z,95213
2015-10-11T02:06:57.716Z,95210
2015-10-11T02:07:16.077Z,95202
2015-10-11T02:07:34.468Z,95210
2015-10-11T02:07:52.859Z,95208
2015-10-11T02:08:11.222Z,95210
2015-10-11T02:08:29.660Z,95202
2015-10-11T02:08:48.175Z,95210
2015-10-11T02:09:06.691Z,95202
2015-10-11T02:09:25.116Z,95208
2015-10-11T02:09:43.647Z,95203
2015-10-11T02:10:02.147Z,95206
2015-10-11T02:10:20.524Z,95211
2015-10-11T02:10:38.961Z,95206
2015-10-11T02:10:57.336Z,95203
2015-10-11T02:11:15.730Z,95209
2015-10-11T02:11:34.152Z,95212
2015-10-11T02:11:52.496Z,95206
2015-10-11T02:12:10.935Z,95198
2015-10-11T02:12:29.310Z,95198
2015-10-11T02:12:47.701Z,95206
2015-10-11T02:13:06.045Z,95208
2015-10-11T02:13:24.485Z,95202
2015-10-11T02:13:42.844Z,95197
2015-10-11T02:14:01.704Z,95205
2015-10-11T02:14:20.065Z,95187
2015-10-11T02:14:38.659Z,95205
2015-10-11T02:14:57.003Z,95198
2015-10-11T02:15:15.459Z,95203
2015-10-11T02:15:34.099Z,95202
2015-10-11T02:15:52.553Z,95197
2015-10-11T02:16:10.959Z,95204
2015-10-11T02:16:29.400Z,95205
2015-10-11T02:16:47.947Z,95202
2015-10-11T02:17:06.322Z,95197
2015-10-11T02:17:24.668Z,95205
2015-10-11T02:17:43.059Z,95205
2015-10-11T02:18:01.605Z,95195
2015-10-11T02:18:20.108Z,95197
2015-10-11T02:18:38.452Z,95197
2015-10-11T02:18:56.858Z,95202
2015-10-11T02:19:15.390Z,95197
2015-10-11T02:19:33.783Z,95204
2015-10-11T02:19:52.299Z,95194
2015-10-11T02:20:10.721Z,95201
2015-10-11T02:20:29.068Z,95202
2015-10-11T02:20:47.599Z,95197
2015-10-11T02:21:06.052Z,95197
2015-10-11T02:21:24.507Z,95215
2015-10-11T02:21:42.851Z,95197
2015-10-11T02:22:01.195Z,95205
2015-10-11T02:22:19.601Z,95205
2015-10-11T02:22:38.056Z,95203
2015-10-11T02:22:56.415Z,95214
2015-10-11T02:23:14.759Z,95208
2015-10-11T02:23:33.107Z,95202
2015-10-11T02:23:51.701Z,95198
2015-10-11T02:24:10.466Z,95192
2015-10-11T02:24:28.859Z,95195
2015-10-11T02:24:47.296Z,95189
2015-10-11T02:25:05.765Z,95192
2015-10-11T02:25:24.171Z,95211
2015-10-11T02:25:42.534Z,95203
2015-10-11T02:26:01.159Z,95209
2015-10-11T02:26:19.612Z,95203
2015-10-11T02:26:37.974Z,95195
2015-10-11T02:26:56.505Z,95198
2015-10-11T02:27:14.849Z,95205
2015-10-11T02:27:33.258Z,95195
2015-10-11T02:27:51.680Z,95196
2015-10-11T02:28:10.118Z,95203
2015-10-11T02:28:28.618Z,95211
2015-10-11T02:28:47.089Z,95209
2015-10-11T02:29:05.448Z,95215
2015-10-11T02:29:23.807Z,95209
2015-10-11T02:29:42.467Z,95204
2015-10-11T02:30:00.982Z,95209
2015-10-11T02:30:19.670Z,95203
2015-10-11T02:30:38.016Z,95198
2015-10-11T02:30:56.610Z,95201
2015-10-11T02:31:15.282Z,95203
2015-10-11T02:31:33.720Z,95214
2015-10-11T02:31:52.097Z,95205
2015-10-11T02:32:10.581Z,95206
2015-10-11T02:32:28.956Z,95209
2015-10-11T02:32:47.365Z,95206
2015-10-11T02:33:06.162Z,95206
2015-10-11T02:33:24.615Z,95206
2015-10-11T02:33:43.150Z,95208
2015-10-11T02:34:01.557Z,95206
2015-10-11T02:34:19.916Z,95209
2015-10-11T02:34:38.260Z,95209
2015-10-11T02:34:56.621Z,95209
2015-10-11T02:35:15.215Z,95215
2015-10-11T02:35:33.590Z,95212
2015-10-11T02:35:51.937Z,95215
2015-10-11T02:36:10.484Z,95216
2015-10-11T02:36:29.093Z,95211
2015-10-11T02:36:47.517Z,95208
2015-10-11T02:37:05.876Z,95216
2015-10-11T02:37:24.423Z,95205
2015-10-11T02:37:42.801Z,95210
2015-10-11T02:38:01.301Z,95208
2015-10-11T02:38:20.207Z,95215
2015-10-11T02:38:38.770Z,95201
2015-10-11T02:38:57.163Z,95215
2015-10-11T02:39:15.632Z,95206
2015-10-11T02:39:34.038Z,95209
2015-10-11T02:39:52.448Z,95203
2015-10-11T02:40:10.995Z,95207
2015-10-11T02:40:29.385Z,95212
2015-10-11T02:40:47.840Z,95210
2015-10-11T02:41:06.309Z,95210
2015-10-11T02:41:24.653Z,95215
2015-10-11T02:41:42.997Z,95214
2015-10-11T02:42:01.656Z,95201
2015-10-11T02:42:20.093Z,95198
2015-10-11T02:42:38.625Z,95195
2015-10-11T02:42:57.017Z,95213
2015-10-11T02:43:15.627Z,95221
2015-10-11T02:43:33.939Z,95210
2015-10-11T02:43:52.364Z,95195
2015-10-11T02:44:10.708Z,95214
2015-10-11T02:44:29.192Z,95209
2015-10-11T02:44:47.598Z,95203
2015-10-11T02:45:06.024Z,95209
2015-10-11T02:45:24.384Z,95206
2015-10-11T02:45:43.180Z,95211
2015-10-11T02:46:01.761Z,95214
2015-10-11T02:46:20.214Z,95208
2015-10-11T02:46:38.682Z,95198
2015-10-11T02:46:57.373Z,95211
2015-10-11T02:47:15.795Z,95211
2015-10-11T02:47:34.185Z,95205
2015-10-11T02:47:52.576Z,95216
2015-10-11T02:48:10.953Z,95205
2015-10-11T02:48:29.391Z,95211
2015-10-11T02:48:47.969Z,95211
2015-10-11T02:49:06.519Z,95205
2015-10-11T02:49:24.987Z,95208
2015-10-11T02:49:43.394Z,95208
2015-10-11T02:50:01.740Z,95195
2015-10-11T02:50:20.193Z,95208
2015-10-11T02:50:38.584Z,95216
2015-10-11T02:50:56.943Z,95205
2015-10-11T02:51:15.446Z,95213
2015-10-11T02:51:34.009Z,95210
2015-10-11T02:51:52.353Z,95205
2015-10-11T02:52:10.902Z,95214
2015-10-11T02:52:29.261Z,95206
2015-10-11T02:52:47.698Z,95215
2015-10-11T02:53:06.045Z,95201
2015-10-11T02:53:24.420Z,95207
2015-10-11T02:53:42.780Z,95207
2015-10-11T02:54:01.328Z,95206
2015-10-11T02:54:19.688Z,95201
2015-10-11T02:54:38.078Z,95196
2015-10-11T02:54:56.485Z,95209
2015-10-11T02:55:14.988Z,95211
2015-10-11T02:55:33.597Z,95212
2015-10-11T02:55:52.113Z,95198
2015-10-11T02:56:10.475Z,95209
2015-10-11T02:56:28.678Z,95198
2015-10-11T02:56:47.209Z,95217
2015-10-11T02:57:05.275Z,95205
2015-10-11T02:57:23.775Z,95214
2015-10-11T02:57:42.150Z,95208
2015-10-11T02:58:00.619Z,95203
2015-10-11T02:58:18.950Z,95203
2015-10-11T02:58:37.278Z,95203
2015-10-11T02:58:55.637Z,95206
2015-10-11T02:59:14.718Z,95209
2015-10-11T02:59:33.172Z,95195
2015-10-11T02:59:51.734Z,95209
2015-10-11T03:00:10.081Z,95206
2015-10-11T03:00:28.471Z,95211
2015-10-11T03:00:46.925Z,95203
2015-10-11T03:01:05.518Z,95205
2015-10-11T03:01:23.958Z,95205
2015-10-11T03:01:42.302Z,95202
2015-10-11T03:02:00.677Z,95213
2015-10-11T03:02:19.038Z,95205
2015-10-11T03:02:37.616Z,95204
2015-10-11T03:02:56.163Z,95205
2015-10-11T03:03:14.510Z,95197
2015-10-11T03:03:32.885Z,95207
2015-10-11T03:03:51.447Z,95205
2015-10-11T03:04:09.825Z,95207
2015-10-11T03:04:28.216Z,95212
2015-10-11T03:04:46.653Z,95215
2015-10-11T03:05:05.216Z,95216
2015-10-11T03:05:23.922Z,95215
2015-10-11T03:05:42.281Z,95210
2015-10-11T03:06:00.734Z,95203
2015-10-11T03:06:19.316Z,95206
2015-10-11T03:06:37.909Z,95198
2015-10-11T03:06:56.394Z,95216
2015-10-11T03:07:14.740Z,95198
2015-10-11T03:07:33.147Z,95202
2015-10-11T03:07:51.522Z,95208
2015-10-11T03:08:10.162Z,95198
2015-10-11T03:08:28.774Z,95211
2015-10-11T03:08:47.336Z,95208
2015-10-11T03:09:05.696Z,95212
2015-10-11T03:09:24.058Z,95208
2015-10-11T03:09:42.464Z,95221
2015-10-11T03:10:01.011Z,95207
2015-10-11T03:10:19.498Z,95221
2015-10-11T03:10:37.842Z,95202
2015-10-11T03:10:56.827Z,95207
2015-10-11T03:11:15.202Z,95215
2015-10-11T03:11:33.658Z,95204
2015-10-11T03:11:52.205Z,95202
2015-10-11T03:12:10.751Z,95216
2015-10-11T03:12:29.097Z,95208
2015-10-11T03:12:47.503Z,95213
2015-10-11T03:13:06.113Z,95205
2015-10-11T03:13:24.663Z,95224
2015-10-11T03:13:43.147Z,95208
2015-10-11T03:14:01.491Z,95216
2015-10-11T03:14:19.881Z,95213
2015-10-11T03:14:38.400Z,95212
2015-10-11T03:14:57.072Z,95223
2015-10-11T03:15:15.931Z,95220
2015-10-11T03:15:34.480Z,95221
2015-10-11T03:15:53.152Z,95205
2015-10-11T03:16:11.574Z,95210
2015-10-11T03:16:30.139Z,95222
2015-10-11T03:16:48.639Z,95208
2015-10-11T03:17:07.311Z,95219
2015-10-11T03:17:25.751Z,95213
2015-10-11T03:17:44.516Z,95213
2015-10-11T03:18:02.891Z,95216
2015-10-11T03:18:21.501Z,95214
2015-10-11T03:18:39.864Z,95214
2015-10-11T03:18:58.286Z,95210
2015-10-11T03:19:16.802Z,95213
2015-10-11T03:19:35.148Z,95221
2015-10-11T03:19:53.961Z,95207
2015-10-11T03:20:12.367Z,95220
2015-10-11T03:20:30.760Z,95222
2015-10-11T03:20:49.229Z,95213
2015-10-11T03:21:07.807Z,95213
2015-10-11T03:21:26.432Z,95215
2015-10-11T03:21:44.778Z,95218
2015-10-11T03:22:03.716Z,95212
2015-10-11T03:22:22.263Z,95215
2015-10-11T03:22:40.952Z,95209
2015-10-11T03:22:59.327Z,95209
2015-10-11T03:23:17.734Z,95220
2015-10-11T03:23:36.441Z,95220
2015-10-11T03:23:54.863Z,95220
2015-10-11T03:24:13.722Z,95215
2015-10-11T03:24:32.490Z,95217
2015-10-11T03:24:50.865Z,95223
2015-10-11T03:25:09.208Z,95215
2015-10-11T03:25:27.927Z,95216
2015-10-11T03:25:46.274Z,95221
2015-10-11T03:26:04.633Z,95210
2015-10-11T03:26:23.071Z,95215
2015-10-11T03:26:41.432Z,95210
2015-10-11T03:26:59.823Z,95213
2015-10-11T03:27:18.229Z,95210
2015-10-11T03:27:36.888Z,95215
2015-10-11T03:27:55.451Z,95221
2015-10-11T03:28:13.888Z,95215
2015-10-11T03:28:32.482Z,95215
2015-10-11T03:28:51.047Z,95218
2015-10-11T03:29:09.391Z,95208
2015-10-11T03:29:27.782Z,95219
2015-10-11T03:29:46.128Z,95211
2015-10-11T03:30:04.487Z,95214
2015-10-11T03:30:22.971Z,95216
2015-10-11T03:30:41.677Z,95216
2015-10-11T03:31:00.084Z,95210
2015-10-11T03:31:18.490Z,95215
2015-10-11T03:31:36.881Z,95212
2015-10-11T03:31:55.243Z,95224
2015-10-11T03:32:13.930Z,95215
2015-10-11T03:32:32.384Z,95218
2015-10-11T03:32:50.762Z,95217
2015-10-11T03:33:09.293Z,95212
2015-10-11T03:33:27.933Z,95212
2015-10-11T03:33:46.390Z,95206
2015-10-11T03:34:04.765Z,95226
2015-10-11T03:34:23.593Z,95220
2015-10-11T03:34:42.392Z,95220
2015-10-11T03:35:00.938Z,95217
2015-10-11T03:35:19.392Z,95220
2015-10-11T03:35:37.876Z,95214
2015-10-11T03:35:56.223Z,95220
2015-10-11T03:36:14.770Z,95217
2015-10-11T03:36:33.316Z,95221
2015-10-11T03:36:51.835Z,95218
2015-10-11T03:37:10.210Z,95218
2015-10-11T03:37:28.866Z,95223
2015-10-11T03:37:47.634Z,95221
2015-10-11T03:38:05.978Z,95212
2015-10-11T03:38:24.321Z,95217
2015-10-11T03:38:42.837Z,95218
2015-10-11T03:39:01.465Z,95215
2015-10-11T03:39:19.949Z,95226
2015-10-11T03:39:38.606Z,95221
2015-10-11T03:39:57.014Z,95224
2015-10-11T03:40:15.373Z,95218
2015-10-11T03:40:33.998Z,95226
2015-10-11T03:40:52.612Z,95238
2015-10-11T03:41:10.940Z,95219
2015-10-11T03:41:29.315Z,95227
2015-10-11T03:41:47.895Z,95235
2015-10-11T03:42:06.473Z,95227
2015-10-11T03:42:24.895Z,95219
2015-10-11T03:42:43.379Z,95224
2015-10-11T03:43:01.726Z,95227
2015-10-11T03:43:20.367Z,95224
2015-10-11T03:43:38.710Z,95224
2015-10-11T03:43:57.260Z,95219
2015-10-11T03:44:15.635Z,95224
2015-10-11T03:44:33.979Z,95219
2015-10-11T03:44:52.326Z,95222
2015-10-11T03:45:10.701Z,95214
2015-10-11T03:45:29.185Z,95214
2015-10-11T03:45:47.576Z,95222
2015-10-11T03:46:05.984Z,95222
2015-10-11T03:46:24.375Z,95219
2015-10-11T03:46:42.734Z,95219
2015-10-11T03:47:01.284Z,95227
2015-10-11T03:47:19.737Z,95225
2015-10-11T03:47:38.096Z,95225
2015-10-11T03:47:56.834Z,95225
2015-10-11T03:48:15.240Z,95222
2015-10-11T03:48:33.662Z,95230
2015-10-11T03:48:52.068Z,95229
2015-10-11T03:49:10.446Z,95219
2015-10-11T03:49:28.946Z,95219
2015-10-11T03:49:47.524Z,95225
2015-10-11T03:50:06.120Z,95222
2015-10-11T03:50:24.823Z,95225
2015-10-11T03:50:43.370Z,95227
2015-10-11T03:51:01.764Z,95230
2015-10-11T03:51:20.389Z,95219
2015-10-11T03:51:38.795Z,95227
2015-10-11T03:51:57.279Z,95221
2015-10-11T03:52:15.767Z,95227
2015-10-11T03:52:34.204Z,95221
2015-10-11T03:52:52.517Z,95226
2015-10-11T03:53:10.926Z,95234
2015-10-11T03:53:29.301Z,95232
2015-10-11T03:53:47.660Z,95223
2015-10-11T03:54:06.022Z,95232
2015-10-11T03:54:24.381Z,95226
2015-10-11T03:54:43.022Z,95221
2015-10-11T03:55:01.603Z,95226
2015-10-11T03:55:19.978Z,95223
2015-10-11T03:55:38.603Z,95226
2015-10-11T03:55:57.072Z,95221
2015-10-11T03:56:15.293Z,95232
2015-10-11T03:56:33.715Z,95231
2015-10-11T03:56:52.184Z,95226
2015-10-11T03:57:10.640Z,95224
2015-10-11T03:57:29.031Z,95232
2015-10-11T03:57:47.640Z,95226